createdAt,value
2023-04-15T00:01:45.245Z,7.60
2023-04-15T00:04:12.837Z,7.70
2023-04-15T00:06:40.444Z,7.60
2023-04-15T00:09:08.123Z,7.90
2023-04-15T00:11:35.767Z,7.80
2023-04-15T00:14:03.137Z,7.90
2023-04-15T00:16:31.025Z,7.80
2023-04-15T00:18:59.323Z,7.80
2023-04-15T00:21:28.166Z,7.80
2023-04-15T00:23:55.712Z,7.80
2023-04-15T00:26:22.891Z,7.80
2023-04-15T00:28:51.234Z,7.90
2023-04-15T00:31:18.550Z,7.70
2023-04-15T00:33:46.764Z,7.60
2023-04-15T00:36:14.861Z,7.70
2023-04-15T00:38:42.196Z,7.50
2023-04-15T00:41:11.410Z,7.30
2023-04-15T00:43:38.730Z,7.30
2023-04-15T00:46:07.744Z,7.40
2023-04-15T00:48:36.060Z,7.50
2023-04-15T00:51:03.408Z,7.60
2023-04-15T00:53:31.204Z,7.50
2023-04-15T00:55:58.650Z,7.50
2023-04-15T00:58:28.584Z,7.70
2023-04-15T01:00:57.418Z,7.40
2023-04-15T01:03:24.864Z,7.20
2023-04-15T01:05:58.577Z,7.20
2023-04-15T01:08:30.272Z,7.20
2023-04-15T01:10:58.945Z,7.40
2023-04-15T01:13:26.788Z,7.40
2023-04-15T01:15:56.325Z,7.50
2023-04-15T01:18:24.825Z,7.50
2023-04-15T01:20:52.320Z,7.50
2023-04-15T01:23:20.020Z,7.60
2023-04-15T01:25:48.422Z,7.50
2023-04-15T01:28:16.444Z,7.50
2023-04-15T01:30:44.792Z,7.50
2023-04-15T01:33:12.451Z,7.40
2023-04-15T01:35:39.962Z,7.50
2023-04-15T01:38:10.770Z,7.60
2023-04-15T01:40:41.077Z,7.50
2023-04-15T01:43:09.678Z,7.60
2023-04-15T01:45:41.147Z,7.50
2023-04-15T01:48:10.436Z,7.60
2023-04-15T01:50:38.450Z,7.60
2023-04-15T01:53:05.702Z,7.60
2023-04-15T01:55:33.001Z,7.60
2023-04-15T01:58:00.267Z,7.70
2023-04-15T02:00:31.906Z,7.70
2023-04-15T02:03:00.571Z,7.70
2023-04-15T02:05:28.341Z,7.50
2023-04-15T02:07:55.684Z,7.80
2023-04-15T02:10:23.538Z,7.60
2023-04-15T02:12:51.461Z,7.50
2023-04-15T02:15:24.774Z,7.40
2023-04-15T02:17:55.481Z,7.20
2023-04-15T02:20:23.416Z,7.20
2023-04-15T02:22:52.408Z,7.30
2023-04-15T02:25:20.792Z,7.30
2023-04-15T02:27:48.108Z,7.40
2023-04-15T02:30:21.707Z,7.50
2023-04-15T02:32:50.694Z,7.50
2023-04-15T02:35:20.037Z,7.50
2023-04-15T02:37:47.576Z,7.40
2023-04-15T02:40:15.138Z,7.50
2023-04-15T02:42:44.437Z,7.50
2023-04-15T02:45:14.861Z,7.50
2023-04-15T02:47:46.212Z,7.50
2023-04-15T02:50:14.248Z,7.40
2023-04-15T02:52:43.481Z,7.40
2023-04-15T02:55:12.791Z,7.20
2023-04-15T02:57:41.337Z,7.40
2023-04-15T03:00:12.240Z,7.20
2023-04-15T03:02:45.014Z,7.50
2023-04-15T03:05:14.352Z,7.40
2023-04-15T03:07:52.359Z,7.60
2023-04-15T03:10:21.366Z,7.60
2023-04-15T03:13:01.382Z,7.80
2023-04-15T03:15:32.009Z,7.80
2023-04-15T03:18:02.283Z,7.80
2023-04-15T03:20:33.296Z,7.90
2023-04-15T03:23:01.310Z,7.90
2023-04-15T03:25:29.129Z,8.00
2023-04-15T03:27:56.415Z,7.90
2023-04-15T03:30:29.010Z,8.00
2023-04-15T03:32:56.703Z,8.00
2023-04-15T03:35:24.373Z,8.00
2023-04-15T03:37:51.887Z,8.00
2023-04-15T03:40:19.252Z,7.90
2023-04-15T03:42:46.984Z,7.80
2023-04-15T03:45:14.377Z,7.90
2023-04-15T03:47:42.670Z,7.90
2023-04-15T03:50:10.255Z,7.90
2023-04-15T03:52:37.727Z,8.00
2023-04-15T03:55:06.973Z,7.90
2023-04-15T03:57:38.270Z,8.10
2023-04-15T04:00:08.168Z,8.10
2023-04-15T04:02:39.428Z,7.90
2023-04-15T04:05:08.400Z,7.90
2023-04-15T04:07:35.678Z,7.90
2023-04-15T04:10:05.163Z,7.90
2023-04-15T04:12:33.291Z,7.90
2023-04-15T04:15:01.268Z,8.10
2023-04-15T04:17:28.563Z,8.10
2023-04-15T04:19:56.252Z,7.90
2023-04-15T04:22:24.875Z,7.80
2023-04-15T04:24:52.335Z,7.80
2023-04-15T04:27:21.894Z,7.90
2023-04-15T04:29:50.171Z,7.80
2023-04-15T04:32:17.801Z,7.80
2023-04-15T04:34:45.121Z,7.90
2023-04-15T04:37:12.408Z,7.70
2023-04-15T04:39:40.530Z,7.60
2023-04-15T04:42:07.826Z,7.70
2023-04-15T04:44:35.058Z,7.80
2023-04-15T04:47:03.266Z,7.70
2023-04-15T04:49:30.623Z,8.00
2023-04-15T04:51:58.262Z,8.00
2023-04-15T04:54:25.673Z,8.10
2023-04-15T04:56:53.006Z,8.20
2023-04-15T04:59:21.329Z,8.30
2023-04-15T05:01:49.162Z,8.10
2023-04-15T05:04:17.019Z,8.30
2023-04-15T05:06:44.760Z,8.20
2023-04-15T05:09:12.934Z,0.00
2023-04-15T05:11:40.173Z,8.10
2023-04-15T05:14:08.004Z,8.00
2023-04-15T05:16:36.956Z,8.10
2023-04-15T05:19:05.314Z,8.10
2023-04-15T05:21:32.712Z,8.20
2023-04-15T05:24:00.462Z,8.20
2023-04-15T05:26:28.422Z,8.00
2023-04-15T05:28:55.654Z,8.20
2023-04-15T05:31:23.910Z,8.10
2023-04-15T05:33:51.988Z,8.20
2023-04-15T05:36:19.853Z,8.10
2023-04-15T05:38:47.210Z,8.10
2023-04-15T05:41:18.352Z,8.10
2023-04-15T05:43:47.409Z,8.40
2023-04-15T05:46:14.778Z,8.40
2023-04-15T05:48:42.957Z,8.30
2023-04-15T05:51:10.863Z,8.50
2023-04-15T05:53:38.921Z,8.50
2023-04-15T05:56:06.676Z,8.50
2023-04-15T05:58:34.135Z,8.70
2023-04-15T06:01:03.157Z,8.50
2023-04-15T06:03:30.882Z,8.50
2023-04-15T06:05:58.762Z,8.40
2023-04-15T06:08:25.986Z,8.40
2023-04-15T06:10:53.254Z,8.40
2023-04-15T06:13:20.892Z,8.50
2023-04-15T06:15:48.980Z,8.60
2023-04-15T06:18:16.483Z,8.60
2023-04-15T06:20:43.918Z,8.70
2023-04-15T06:23:11.487Z,8.80
2023-04-15T06:25:38.796Z,8.80
2023-04-15T06:28:06.633Z,8.80
2023-04-15T06:30:38.124Z,8.80
2023-04-15T06:33:07.626Z,8.80
2023-04-15T06:35:34.976Z,8.80
2023-04-15T06:38:02.982Z,8.80
2023-04-15T06:40:30.788Z,8.50
2023-04-15T06:45:27.968Z,8.20
2023-04-15T06:47:57.662Z,8.10
2023-04-15T06:50:25.542Z,8.20
2023-04-15T06:52:54.490Z,8.40
2023-04-15T06:55:22.627Z,8.50
2023-04-15T06:57:50.256Z,8.60
2023-04-15T07:00:21.676Z,8.70
2023-04-15T07:02:50.002Z,8.90
2023-04-15T07:05:18.257Z,8.90
2023-04-15T07:07:46.287Z,9.20
2023-04-15T07:10:15.121Z,9.20
2023-04-15T07:12:43.575Z,9.30
2023-04-15T07:15:12.759Z,9.30
2023-04-15T07:17:45.915Z,9.30
2023-04-15T07:20:14.139Z,9.40
2023-04-15T07:22:41.800Z,9.40
2023-04-15T07:27:31.332Z,9.50
2023-04-15T07:29:59.818Z,9.50
2023-04-15T07:40:09.216Z,9.50
2023-04-15T07:42:38.056Z,9.50
2023-04-15T07:45:07.984Z,9.50
2023-04-15T07:47:56.399Z,9.40
2023-04-15T07:50:43.592Z,9.40
2023-04-15T07:53:48.637Z,9.50
2023-04-15T07:56:41.975Z,9.50
2023-04-15T07:59:58.862Z,9.40
2023-04-15T08:05:33.797Z,9.50
2023-04-15T08:08:02.157Z,9.50
2023-04-15T08:10:30.558Z,9.50
2023-04-15T08:12:57.976Z,9.50
2023-04-15T08:15:29.560Z,9.40
2023-04-15T08:17:58.773Z,9.40
2023-04-15T08:20:27.075Z,9.50
2023-04-15T08:22:54.722Z,9.50
2023-04-15T08:25:23.576Z,9.50
2023-04-15T08:27:51.322Z,9.50
2023-04-15T08:30:24.703Z,9.50
2023-04-15T08:32:54.213Z,9.50
2023-04-15T08:35:21.545Z,9.60
2023-04-15T08:37:49.774Z,9.60
2023-04-15T08:40:17.293Z,9.50
2023-04-15T08:42:48.590Z,9.50
2023-04-15T08:45:21.552Z,9.60
2023-04-15T08:47:56.527Z,9.70
2023-04-15T08:50:26.578Z,9.70
2023-04-15T08:52:58.962Z,9.80
2023-04-15T08:55:36.510Z,9.70
2023-04-15T08:58:05.815Z,9.70
2023-04-15T09:00:36.313Z,9.70
2023-04-15T09:03:08.415Z,9.80
2023-04-15T09:05:37.326Z,9.80
2023-04-15T13:26:46.246Z,13.50
2023-04-15T13:29:14.361Z,13.30
2023-04-15T13:31:41.888Z,13.20
2023-04-15T13:34:09.458Z,13.10
2023-04-15T13:36:36.781Z,13.00
2023-04-15T13:39:05.867Z,12.80
2023-04-15T13:41:33.385Z,12.60
2023-04-15T13:44:00.778Z,12.40
2023-04-15T13:46:28.179Z,12.50
2023-04-15T13:48:55.873Z,12.50
2023-04-15T13:51:23.580Z,12.30
2023-04-15T13:53:50.863Z,12.30
2023-04-15T13:56:18.339Z,12.20
2023-04-15T13:58:46.114Z,12.10
2023-04-15T14:01:13.630Z,11.90
2023-04-15T14:03:41.468Z,11.80
2023-04-15T14:06:08.977Z,11.70
2023-04-15T14:08:36.439Z,11.70
2023-04-15T14:11:04.884Z,11.70
2023-04-15T14:13:32.366Z,11.90
2023-04-15T14:15:59.663Z,12.00
2023-04-15T14:18:27.423Z,12.10
2023-04-15T14:20:54.729Z,12.20
2023-04-15T14:23:22.767Z,12.30
2023-04-15T14:25:51.057Z,12.40
2023-04-15T14:28:18.619Z,12.40
2023-04-15T14:30:46.543Z,12.50
2023-04-15T14:33:14.142Z,12.70
2023-04-15T14:35:42.499Z,12.70
2023-04-15T14:38:11.622Z,12.60
2023-04-15T14:40:39.776Z,12.50
2023-04-15T14:43:08.061Z,12.50
2023-04-15T14:45:44.605Z,12.40
2023-04-15T14:48:14.300Z,12.30
2023-04-15T14:50:42.889Z,12.10
2023-04-15T14:53:10.742Z,11.90
2023-04-15T14:55:38.693Z,11.90
2023-04-15T14:58:08.393Z,12.00
2023-04-15T15:00:41.781Z,11.90
2023-04-15T15:03:13.191Z,11.90
2023-04-15T15:05:47.805Z,11.90
2023-04-15T15:08:15.542Z,11.70
2023-04-15T15:10:47.153Z,11.80
2023-04-15T15:13:17.727Z,11.80
2023-04-15T15:15:46.791Z,11.70
2023-04-15T15:18:14.126Z,11.70
2023-04-15T15:20:41.525Z,11.80
2023-04-15T15:23:08.841Z,11.70
2023-04-15T15:25:36.133Z,11.40
2023-04-15T15:28:03.965Z,11.40
2023-04-15T15:30:33.471Z,11.40
2023-04-15T15:33:02.377Z,11.40
2023-04-15T15:35:29.970Z,11.50
2023-04-15T15:37:57.261Z,11.40
2023-04-15T15:40:25.233Z,11.40
2023-04-15T15:42:53.230Z,11.40
2023-04-15T15:45:23.185Z,11.30
2023-04-15T15:47:52.053Z,11.20
2023-04-15T15:50:21.137Z,11.20
2023-04-15T15:52:48.533Z,11.20
2023-04-15T15:55:15.942Z,11.30
2023-04-15T15:57:43.274Z,11.10
2023-04-15T16:00:12.838Z,11.00
2023-04-15T16:03:04.962Z,11.00
2023-04-15T16:05:28.287Z,11.10
2023-04-15T16:07:56.540Z,11.00
2023-04-15T16:10:23.941Z,10.90
2023-04-15T16:12:52.356Z,10.90
2023-04-15T16:15:24.140Z,11.00
2023-04-15T16:17:52.794Z,11.00
2023-04-15T16:20:20.380Z,11.00
2023-04-15T16:22:47.753Z,11.00
2023-04-15T16:25:15.191Z,10.80
2023-04-15T16:27:58.805Z,10.80
2023-04-15T16:30:33.581Z,10.90
2023-04-15T16:33:01.887Z,10.90
2023-04-15T16:35:29.601Z,10.90
2023-04-15T16:37:57.313Z,10.90
2023-04-15T16:40:25.558Z,10.80
2023-04-15T16:42:53.221Z,10.70
2023-04-15T16:45:24.233Z,10.80
2023-04-15T16:47:53.233Z,10.80
2023-04-15T16:50:20.554Z,10.80
2023-04-15T16:52:47.951Z,10.70
2023-04-15T16:55:15.792Z,10.70
2023-04-15T17:01:33.846Z,10.80
2023-04-15T17:04:02.136Z,10.80
2023-04-15T17:09:05.686Z,10.80
2023-04-15T17:14:24.463Z,10.80
2023-04-15T17:16:51.816Z,10.90
2023-04-15T17:19:19.089Z,10.90
2023-04-15T17:21:46.822Z,10.90
2023-04-15T17:24:14.238Z,10.90
2023-04-15T17:26:41.625Z,10.90
2023-04-15T17:29:09.016Z,10.90
2023-04-15T17:31:36.610Z,10.90
2023-04-15T17:34:10.047Z,10.70
2023-04-15T17:36:38.805Z,10.40
2023-04-15T17:39:06.840Z,10.30
2023-04-15T17:41:34.269Z,10.30
2023-04-15T17:44:01.656Z,10.40
2023-04-15T17:46:29.106Z,10.50
2023-04-15T17:48:56.446Z,10.60
2023-04-15T17:51:24.242Z,10.60
2023-04-15T17:54:07.425Z,10.70
2023-04-15T17:56:35.457Z,10.60
2023-04-15T17:59:03.872Z,10.80
2023-04-15T18:01:31.288Z,10.80
2023-04-15T18:03:58.729Z,10.90
2023-04-15T18:06:27.372Z,10.90
2023-04-15T18:08:54.817Z,10.90
2023-04-15T18:11:22.190Z,10.80
2023-04-15T18:13:49.428Z,10.80
2023-04-15T18:16:16.858Z,10.80
2023-04-15T18:18:44.588Z,10.80
2023-04-15T18:21:13.729Z,10.90
2023-04-15T18:23:41.298Z,10.90
2023-04-15T18:26:08.695Z,10.90
2023-04-15T18:28:37.803Z,10.90
2023-04-15T18:31:06.453Z,10.80
2023-04-15T18:33:35.698Z,10.80
2023-04-15T18:36:03.197Z,10.70
2023-04-15T18:38:32.006Z,10.70
2023-04-15T18:40:59.334Z,10.60
2023-04-15T18:43:27.430Z,10.70
2023-04-15T18:45:55.249Z,10.70
2023-04-15T18:48:22.996Z,10.70
2023-04-15T18:50:54.184Z,10.60
2023-04-15T18:53:21.997Z,10.60
2023-04-15T18:55:49.232Z,10.50
2023-04-15T18:58:16.513Z,10.50
2023-04-15T19:00:45.622Z,10.50
2023-04-15T19:03:13.746Z,10.50
2023-04-15T19:05:41.260Z,10.50
2023-04-15T19:08:08.737Z,10.50
2023-04-15T19:10:36.213Z,10.50
2023-04-15T19:13:04.566Z,10.40
2023-04-15T19:15:34.459Z,10.50
2023-04-15T19:18:02.398Z,10.50
2023-04-15T19:20:30.856Z,10.50
2023-04-15T19:22:58.364Z,10.20
2023-04-15T19:25:25.833Z,10.10
2023-04-15T19:27:53.132Z,10.10
2023-04-15T19:30:25.844Z,10.10
2023-04-15T19:32:53.564Z,10.10
2023-04-15T19:35:21.429Z,10.20
2023-04-15T19:37:49.253Z,10.30
2023-04-15T19:40:16.718Z,10.10
2023-04-15T19:42:44.303Z,10.10
2023-04-15T19:45:11.821Z,10.10
2023-04-15T19:47:39.468Z,10.20
2023-04-15T19:50:08.062Z,10.20
2023-04-15T19:52:35.384Z,10.20
2023-04-15T19:55:03.479Z,10.00
2023-04-15T19:57:30.864Z,9.80
2023-04-15T19:59:58.293Z,9.80
2023-04-15T20:02:26.198Z,9.90
2023-04-15T20:04:53.645Z,10.00
2023-04-15T20:07:21.034Z,10.00
2023-04-15T20:09:48.406Z,10.10
2023-04-15T20:12:50.412Z,10.10
2023-04-15T20:15:04.791Z,10.10
2023-04-15T20:17:36.289Z,10.20
2023-04-15T20:20:07.181Z,10.30
2023-04-15T20:22:34.978Z,10.20
2023-04-15T20:25:03.464Z,10.10
2023-04-15T20:27:31.636Z,10.20
2023-04-15T20:29:59.095Z,10.10
2023-04-15T20:32:28.491Z,9.80
2023-04-15T20:34:55.964Z,9.90
2023-04-15T20:37:23.391Z,9.90
2023-04-15T20:39:51.445Z,10.00
2023-04-15T20:42:19.979Z,9.90
2023-04-15T20:44:48.132Z,9.80
2023-04-15T20:47:15.835Z,9.90
2023-04-15T20:49:43.614Z,9.90
2023-04-15T20:52:11.775Z,10.00
2023-04-15T20:54:39.122Z,10.10
2023-04-15T20:57:07.005Z,9.90
2023-04-15T20:59:35.468Z,10.00
2023-04-15T21:02:03.436Z,10.00
2023-04-15T21:04:31.958Z,10.00
2023-04-15T21:06:59.310Z,10.00
2023-04-15T21:09:27.065Z,10.00
2023-04-15T21:12:01.008Z,9.90
2023-04-15T21:14:28.859Z,9.90
2023-04-15T21:16:58.441Z,9.80
2023-04-15T21:19:26.577Z,9.80
2023-04-15T21:21:53.912Z,9.70
2023-04-15T21:24:21.271Z,9.70
2023-04-15T21:26:49.012Z,9.80
2023-04-15T21:29:16.367Z,9.80
2023-04-15T21:31:44.085Z,9.90
2023-04-15T21:34:11.620Z,9.80
2023-04-15T21:36:39.393Z,9.60
2023-04-15T21:39:07.711Z,9.60
2023-04-15T21:41:36.967Z,9.70
2023-04-15T21:44:05.484Z,9.70
2023-04-15T21:46:35.927Z,9.80
2023-04-15T21:49:04.346Z,9.80
2023-04-15T21:51:32.799Z,9.90
2023-04-15T21:54:00.396Z,10.00
2023-04-15T21:56:28.221Z,9.80
2023-04-15T21:58:57.308Z,9.70
2023-04-15T22:01:26.255Z,9.80
2023-04-15T22:03:54.232Z,9.90
2023-04-15T22:06:21.758Z,10.00
2023-04-15T22:09:10.652Z,9.90
2023-04-15T22:11:39.135Z,10.10
2023-04-15T22:14:07.270Z,9.90
2023-04-15T22:16:34.560Z,9.80
2023-04-15T22:19:02.990Z,9.90
2023-04-15T22:21:30.624Z,9.90
2023-04-15T22:24:31.637Z,9.90
2023-04-15T22:26:46.278Z,9.90
2023-04-15T22:29:13.761Z,9.90
2023-04-15T22:31:41.285Z,9.70
2023-04-15T22:34:08.849Z,9.60
2023-04-15T22:36:36.129Z,9.50
2023-04-15T22:39:03.968Z,9.40
2023-04-15T22:41:31.513Z,9.30
2023-04-15T22:43:58.837Z,9.30
2023-04-15T22:46:26.825Z,9.30
2023-04-15T22:48:54.539Z,9.40
2023-04-15T22:51:30.601Z,9.50
2023-04-15T22:54:06.037Z,9.80
2023-04-15T22:56:34.409Z,9.80
2023-04-15T22:59:01.819Z,9.90
2023-04-15T23:01:30.663Z,10.10
2023-04-15T23:04:04.069Z,10.00
2023-04-15T23:06:36.705Z,10.10
2023-04-15T23:09:04.418Z,10.10
2023-04-15T23:11:31.862Z,10.00
2023-04-15T23:13:59.237Z,10.00
2023-04-15T23:16:27.165Z,10.00
2023-04-15T23:18:54.817Z,10.00
2023-04-15T23:21:23.237Z,10.00
2023-04-15T23:23:52.409Z,10.00
2023-04-15T23:26:19.691Z,10.00
2023-04-15T23:28:47.024Z,9.80
2023-04-15T23:31:14.489Z,9.20
2023-04-15T23:33:42.104Z,9.00
2023-04-15T23:38:40.668Z,8.80
2023-04-15T23:41:09.649Z,8.90
2023-04-15T23:43:37.050Z,9.00
2023-04-15T23:46:04.598Z,9.10
2023-04-15T23:48:32.834Z,9.10
2023-04-15T23:51:01.746Z,9.10
2023-04-15T23:53:30.096Z,9.20
2023-04-15T23:55:57.548Z,9.00
2023-04-15T23:58:24.891Z,8.80
